Time;durP1;ratioP1;P1;durP2;ratioP2;P2;SDS_P1;SDS_P2;PMS_P1;PMS_P2;Temp;Humidity;BMP_temperature;BMP_pressure;BME280_temperature;BME280_humidity;BME280_pressure;Samples;Min_cycle;Max_cycle;Signal;HPM_P1;HPM_P2
2022/05/07 00:00:30;;;;;;;6.45;4.00;;;;;;;;;;5066858;28;20459;-53
2022/05/07 00:02:56;;;;;;;7.97;4.13;;;;;;;;;;5061941;28;20028;-50
2022/05/07 00:05:22;;;;;;;6.50;3.85;;;;;;;;;;5063914;28;20025;-50
2022/05/07 00:07:49;;;;;;;6.35;3.78;;;;;;;;;;5061315;28;20034;-50
2022/05/07 00:10:15;;;;;;;6.05;4.20;;;;;;;;;;5057693;28;20036;-52
2022/05/07 00:12:41;;;;;;;7.55;3.85;;;;;;;;;;5063947;28;20040;-50
2022/05/07 00:15:08;;;;;;;10.20;3.90;;;;;;;;;;5061666;28;20113;-49
2022/05/07 00:20:19;;;;;;;9.32;3.85;;;;;;;;;;5061173;28;20047;-50
2022/05/07 00:22:45;;;;;;;6.78;3.95;;;;;;;;;;5066514;28;20020;-49
2022/05/07 00:25:11;;;;;;;4.70;3.42;;;;;;;;;;5067215;28;20025;-50
2022/05/07 00:27:37;;;;;;;3.90;3.05;;;;;;;;;;5056155;28;20063;-49
2022/05/07 00:30:04;;;;;;;4.57;3.15;;;;;;;;;;5056447;28;20032;-49
2022/05/07 00:32:30;;;;;;;4.03;3.03;;;;;;;;;;5064443;28;20025;-51
2022/05/07 00:34:56;;;;;;;5.30;3.10;;;;;;;;;;5060061;28;20052;-50
2022/05/07 00:37:23;;;;;;;7.60;3.33;;;;;;;;;;5061168;28;20033;-50
2022/05/07 00:39:49;;;;;;;5.30;3.30;;;;;;;;;;5058490;28;20135;-50
2022/05/07 00:42:15;;;;;;;4.65;3.28;;;;;;;;;;5061514;28;20107;-50
2022/05/07 00:44:41;;;;;;;5.18;3.63;;;;;;;;;;5062929;28;20020;-50
2022/05/07 00:47:24;;;;;;;5.85;4.05;;;;;;;;;;5061847;28;20585;-50
2022/05/07 00:49:52;;;;;;;6.88;3.67;;;;;;;;;;5057618;28;20021;-50
2022/05/07 00:52:18;;;;;;;4.75;3.60;;;;;;;;;;5059968;28;20028;-50
2022/05/07 00:54:44;;;;;;;6.28;3.70;;;;;;;;;;5055376;28;20029;-49
2022/05/07 00:57:11;;;;;;;4.80;3.38;;;;;;;;;;5056722;28;20183;-50
2022/05/07 00:59:37;;;;;;;3.85;3.15;;;;;;;;;;5056198;28;20438;-49
2022/05/07 01:02:03;;;;;;;6.78;3.55;;;;;;;;;;5042745;28;20033;-53
2022/05/07 01:04:29;;;;;;;5.38;3.58;;;;;;;;;;5062079;28;20029;-51
2022/05/07 01:06:55;;;;;;;6.22;3.65;;;;;;;;;;5056946;28;20021;-51
2022/05/07 01:09:21;;;;;;;5.47;3.75;;;;;;;;;;5068157;28;20086;-51
2022/05/07 01:11:47;;;;;;;6.07;3.42;;;;;;;;;;5066982;28;20026;-51
2022/05/07 01:14:13;;;;;;;8.60;3.53;;;;;;;;;;5064876;28;20104;-51
2022/05/07 01:16:39;;;;;;;5.10;3.67;;;;;;;;;;5060975;28;20020;-50
2022/05/07 01:19:05;;;;;;;6.30;3.58;;;;;;;;;;5065681;28;20522;-52
2022/05/07 01:21:31;;;;;;;6.72;4.03;;;;;;;;;;5066305;28;20028;-53
2022/05/07 01:23:58;;;;;;;4.72;3.33;;;;;;;;;;5059921;28;20041;-51
2022/05/07 01:26:24;;;;;;;6.18;3.60;;;;;;;;;;5058846;28;20024;-53
2022/05/07 01:28:50;;;;;;;6.15;3.42;;;;;;;;;;5054837;28;20443;-51
2022/05/07 01:31:18;;;;;;;5.15;3.30;;;;;;;;;;5062652;28;20016;-50
2022/05/07 01:33:44;;;;;;;7.35;3.70;;;;;;;;;;5059237;28;20039;-52
2022/05/07 01:36:13;;;;;;;6.32;3.47;;;;;;;;;;5062962;28;20025;-52
2022/05/07 01:38:39;;;;;;;4.22;3.20;;;;;;;;;;5055442;28;20029;-51
2022/05/07 01:41:05;;;;;;;6.93;3.80;;;;;;;;;;5061490;28;20066;-50
2022/05/07 01:43:32;;;;;;;5.82;3.50;;;;;;;;;;5063031;28;20082;-54
2022/05/07 01:45:59;;;;;;;5.78;3.35;;;;;;;;;;5063955;28;20021;-50
2022/05/07 01:48:25;;;;;;;4.60;3.40;;;;;;;;;;5066003;28;20048;-50
2022/05/07 01:50:51;;;;;;;4.85;3.33;;;;;;;;;;5058286;28;20068;-51
2022/05/07 01:53:17;;;;;;;9.38;4.10;;;;;;;;;;5063673;28;20032;-49
2022/05/07 01:55:44;;;;;;;4.60;3.22;;;;;;;;;;5059308;28;20499;-52
2022/05/07 01:58:11;;;;;;;6.15;3.85;;;;;;;;;;5054248;28;20570;-53
2022/05/07 02:00:40;;;;;;;5.07;4.05;;;;;;;;;;5059180;28;20032;-52
2022/05/07 02:03:06;;;;;;;5.63;3.25;;;;;;;;;;5062304;28;20029;-50
2022/05/07 02:05:32;;;;;;;5.95;4.05;;;;;;;;;;5057018;28;21194;-51
2022/05/07 02:07:58;;;;;;;6.38;3.63;;;;;;;;;;5061678;28;20051;-51
2022/05/07 02:10:24;;;;;;;5.78;3.67;;;;;;;;;;5053390;28;20472;-50
2022/05/07 02:12:50;;;;;;;5.03;3.63;;;;;;;;;;5061246;28;20040;-52
2022/05/07 02:15:16;;;;;;;7.68;3.92;;;;;;;;;;5060082;28;20025;-50
2022/05/07 02:17:42;;;;;;;5.38;3.45;;;;;;;;;;5058445;28;20120;-50
2022/05/07 02:20:09;;;;;;;5.78;4.00;;;;;;;;;;5057378;28;20127;-51
2022/05/07 02:22:35;;;;;;;7.75;3.78;;;;;;;;;;5059709;28;20044;-50
2022/05/07 02:25:01;;;;;;;7.95;3.55;;;;;;;;;;5061495;28;20044;-51
2022/05/07 02:27:27;;;;;;;6.72;3.67;;;;;;;;;;5054314;28;20071;-50
2022/05/07 02:29:53;;;;;;;5.97;3.63;;;;;;;;;;5061600;28;20494;-50
2022/05/07 02:32:19;;;;;;;5.70;3.30;;;;;;;;;;5065093;28;20032;-50
2022/05/07 02:34:45;;;;;;;5.45;3.47;;;;;;;;;;5068147;28;20039;-49
2022/05/07 02:37:11;;;;;;;5.68;3.67;;;;;;;;;;5058635;28;20078;-53
2022/05/07 02:39:37;;;;;;;9.15;3.67;;;;;;;;;;5061504;28;20032;-50
2022/05/07 02:44:49;;;;;;;6.65;3.38;;;;;;;;;;5057345;28;20439;-51
2022/05/07 02:47:14;;;;;;;5.97;3.50;;;;;;;;;;5059536;28;20029;-51
2022/05/07 02:49:40;;;;;;;5.28;3.40;;;;;;;;;;5063034;28;20024;-50
2022/05/07 02:52:07;;;;;;;4.90;3.17;;;;;;;;;;5052585;28;20043;-51
2022/05/07 02:54:32;;;;;;;6.63;3.33;;;;;;;;;;5062082;28;20032;-51
2022/05/07 02:56:59;;;;;;;5.13;3.17;;;;;;;;;;5056708;28;20029;-50
2022/05/07 02:59:25;;;;;;;4.82;3.40;;;;;;;;;;5065756;28;20410;-50
2022/05/07 03:01:51;;;;;;;5.78;3.35;;;;;;;;;;5058962;28;20029;-50
2022/05/07 03:04:18;;;;;;;4.65;3.42;;;;;;;;;;5061217;28;20576;-50
2022/05/07 03:06:44;;;;;;;5.22;3.28;;;;;;;;;;5059328;28;20063;-49
2022/05/07 03:09:11;;;;;;;4.32;2.72;;;;;;;;;;5059995;28;20020;-51
2022/05/07 03:11:37;;;;;;;5.20;3.42;;;;;;;;;;5064415;28;20136;-51
2022/05/07 03:14:03;;;;;;;4.10;2.95;;;;;;;;;;5067699;28;21932;-50
2022/05/07 03:16:30;;;;;;;6.35;3.63;;;;;;;;;;5066372;28;20025;-50
2022/05/07 03:18:55;;;;;;;5.28;3.28;;;;;;;;;;5064168;28;20504;-50
2022/05/07 03:21:21;;;;;;;6.90;3.38;;;;;;;;;;5055625;28;20033;-51
2022/05/07 03:23:47;;;;;;;3.63;2.75;;;;;;;;;;5067040;28;20037;-50
2022/05/07 03:26:14;;;;;;;3.83;2.78;;;;;;;;;;5057123;28;20112;-50
2022/05/07 03:28:40;;;;;;;4.72;3.15;;;;;;;;;;5056599;28;20484;-50
2022/05/07 03:31:06;;;;;;;5.13;2.90;;;;;;;;;;5066068;28;20040;-51
2022/05/07 03:33:33;;;;;;;4.93;3.17;;;;;;;;;;5067445;28;20098;-52
2022/05/07 03:35:59;;;;;;;4.53;2.92;;;;;;;;;;5066037;28;20551;-50
2022/05/07 03:38:25;;;;;;;4.72;3.30;;;;;;;;;;5063621;28;20024;-51
2022/05/07 03:40:51;;;;;;;7.45;3.20;;;;;;;;;;5062353;28;20044;-51
2022/05/07 03:43:17;;;;;;;4.03;2.80;;;;;;;;;;5061621;28;20043;-51
2022/05/07 03:45:43;;;;;;;4.57;3.40;;;;;;;;;;5060372;28;20040;-50
2022/05/07 03:48:09;;;;;;;6.43;3.28;;;;;;;;;;5069336;28;20479;-50
2022/05/07 03:50:35;;;;;;;5.82;3.28;;;;;;;;;;5066341;28;20077;-51
2022/05/07 03:55:46;;;;;;;6.20;3.60;;;;;;;;;;5064480;28;20105;-50
2022/05/07 03:58:16;;;;;;;6.05;3.60;;;;;;;;;;5055010;28;20036;-50
2022/05/07 04:00:42;;;;;;;5.57;3.58;;;;;;;;;;5063229;28;20032;-51
2022/05/07 04:03:09;;;;;;;5.40;3.47;;;;;;;;;;5054659;28;20025;-50
2022/05/07 04:05:35;;;;;;;4.70;3.45;;;;;;;;;;5070375;28;20029;-51
2022/05/07 04:08:01;;;;;;;5.43;3.58;;;;;;;;;;5061839;28;20096;-51
2022/05/07 04:10:26;;;;;;;5.95;3.55;;;;;;;;;;5060246;28;20468;-51
2022/05/07 04:12:53;;;;;;;5.57;3.95;;;;;;;;;;5068529;28;20638;-50
2022/05/07 04:15:19;;;;;;;5.57;3.60;;;;;;;;;;5065817;28;20454;-51
2022/05/07 04:17:45;;;;;;;6.03;4.05;;;;;;;;;;5048134;28;20551;-52
2022/05/07 04:20:12;;;;;;;5.95;4.07;;;;;;;;;;5068897;28;20167;-50
2022/05/07 04:22:38;;;;;;;5.82;4.13;;;;;;;;;;5040046;28;20033;-49
2022/05/07 04:25:07;;;;;;;5.55;3.55;;;;;;;;;;5067568;28;20021;-52
2022/05/07 04:27:33;;;;;;;7.07;3.88;;;;;;;;;;5062208;28;20029;-52
2022/05/07 04:30:00;;;;;;;9.30;3.55;;;;;;;;;;5067715;28;20127;-54
2022/05/07 04:32:28;;;;;;;6.05;4.03;;;;;;;;;;5066466;28;20036;-51
2022/05/07 04:34:55;;;;;;;5.45;3.50;;;;;;;;;;5069831;28;20032;-52
2022/05/07 04:37:21;;;;;;;7.78;3.85;;;;;;;;;;5068298;28;20662;-54
2022/05/07 04:39:47;;;;;;;6.22;3.33;;;;;;;;;;5068968;28;20032;-51
2022/05/07 04:42:13;;;;;;;7.60;3.80;;;;;;;;;;5055886;28;20035;-50
2022/05/07 04:44:39;;;;;;;5.47;3.25;;;;;;;;;;5055794;28;20029;-49
2022/05/07 04:47:05;;;;;;;8.50;3.67;;;;;;;;;;5063900;28;20040;-50
2022/05/07 04:49:32;;;;;;;4.70;3.45;;;;;;;;;;5055990;28;20396;-51
2022/05/07 04:51:58;;;;;;;5.75;3.50;;;;;;;;;;5052138;28;20086;-50
2022/05/07 04:54:24;;;;;;;6.50;3.50;;;;;;;;;;5054592;28;20139;-50
2022/05/07 04:56:51;;;;;;;8.07;3.53;;;;;;;;;;5061391;28;20025;-50
2022/05/07 04:59:18;;;;;;;6.75;3.47;;;;;;;;;;5057966;28;20120;-51
2022/05/07 05:01:44;;;;;;;6.20;3.75;;;;;;;;;;5062610;28;20024;-53
2022/05/07 05:04:10;;;;;;;4.65;3.28;;;;;;;;;;5060661;28;20032;-53
2022/05/07 05:06:37;;;;;;;4.22;3.30;;;;;;;;;;5063929;28;20025;-50
2022/05/07 05:09:04;;;;;;;6.65;3.38;;;;;;;;;;5070465;28;20035;-51
2022/05/07 05:11:31;;;;;;;5.63;3.08;;;;;;;;;;5065001;28;20036;-51
2022/05/07 05:13:57;;;;;;;6.50;3.40;;;;;;;;;;5058285;28;20082;-51
2022/05/07 05:16:23;;;;;;;5.53;3.42;;;;;;;;;;5064003;28;20443;-51
2022/05/07 05:18:49;;;;;;;4.50;2.92;;;;;;;;;;5070432;28;20068;-51
2022/05/07 05:21:15;;;;;;;5.55;3.47;;;;;;;;;;5065491;28;20029;-51
2022/05/07 05:23:41;;;;;;;5.32;3.67;;;;;;;;;;5055507;28;20039;-50
2022/05/07 05:26:08;;;;;;;4.88;3.35;;;;;;;;;;5063401;28;20021;-50
2022/05/07 05:28:35;;;;;;;6.18;4.05;;;;;;;;;;5065591;28;20142;-53
2022/05/07 05:31:01;;;;;;;5.15;3.38;;;;;;;;;;5057699;28;20495;-51
2022/05/07 05:33:27;;;;;;;9.82;4.07;;;;;;;;;;5066535;28;20115;-51
2022/05/07 05:35:53;;;;;;;5.28;3.25;;;;;;;;;;5060366;28;20120;-50
2022/05/07 05:38:19;;;;;;;6.30;3.38;;;;;;;;;;5062999;28;20028;-50
2022/05/07 05:40:45;;;;;;;7.45;3.55;;;;;;;;;;5054444;28;20345;-50
2022/05/07 05:43:11;;;;;;;4.28;2.72;;;;;;;;;;5052566;28;20028;-54
2022/05/07 05:45:37;;;;;;;5.13;3.25;;;;;;;;;;5055091;28;20028;-51
2022/05/07 05:48:04;;;;;;;6.03;2.85;;;;;;;;;;5055978;28;20396;-54
2022/05/07 05:50:30;;;;;;;6.15;3.10;;;;;;;;;;5055082;28;20542;-52
2022/05/07 05:52:57;;;;;;;4.53;2.80;;;;;;;;;;5053656;28;20025;-52
2022/05/07 05:55:23;;;;;;;3.75;2.75;;;;;;;;;;5067257;28;20028;-51
2022/05/07 05:57:52;;;;;;;4.40;2.58;;;;;;;;;;5059697;28;20039;-50
2022/05/07 06:00:18;;;;;;;4.10;2.40;;;;;;;;;;5063719;28;20043;-51
2022/05/07 06:02:45;;;;;;;4.28;2.15;;;;;;;;;;5057404;28;20180;-53
2022/05/07 06:05:11;;;;;;;4.03;2.70;;;;;;;;;;5052285;28;20086;-52
2022/05/07 06:07:37;;;;;;;4.20;2.40;;;;;;;;;;5064425;28;20048;-50
2022/05/07 06:10:04;;;;;;;4.03;2.40;;;;;;;;;;5065180;28;20071;-51
2022/05/07 06:12:30;;;;;;;3.35;2.22;;;;;;;;;;5058335;28;20086;-52
2022/05/07 06:14:56;;;;;;;3.83;1.90;;;;;;;;;;5062185;28;20036;-53
2022/05/07 06:17:22;;;;;;;3.03;1.88;;;;;;;;;;5059202;28;20115;-54
2022/05/07 06:19:49;;;;;;;5.18;2.00;;;;;;;;;;5056586;28;20136;-54
2022/05/07 06:22:14;;;;;;;3.38;1.95;;;;;;;;;;5063440;28;20041;-52
2022/05/07 06:27:28;;;;;;;3.75;2.20;;;;;;;;;;5058137;28;20055;-54
2022/05/07 06:29:54;;;;;;;3.63;2.10;;;;;;;;;;5058567;28;20025;-54
2022/05/07 06:32:21;;;;;;;2.67;2.03;;;;;;;;;;5059408;28;20037;-53
2022/05/07 06:34:47;;;;;;;2.22;1.50;;;;;;;;;;5058344;28;20032;-51
2022/05/07 06:37:14;;;;;;;3.83;1.27;;;;;;;;;;5063143;28;20028;-52
2022/05/07 06:39:39;;;;;;;4.10;1.83;;;;;;;;;;5061264;28;20021;-53
2022/05/07 06:42:06;;;;;;;3.60;2.00;;;;;;;;;;5060219;28;20369;-53
2022/05/07 06:44:32;;;;;;;3.20;1.85;;;;;;;;;;5070509;28;20060;-53
2022/05/07 06:46:58;;;;;;;3.50;1.55;;;;;;;;;;5063791;28;20365;-52
2022/05/07 06:49:24;;;;;;;2.28;1.60;;;;;;;;;;5058515;28;20036;-52
2022/05/07 06:51:51;;;;;;;2.40;1.70;;;;;;;;;;5065663;28;20031;-53
2022/05/07 06:54:17;;;;;;;6.57;1.80;;;;;;;;;;5065799;28;20032;-52
2022/05/07 06:56:43;;;;;;;2.78;1.45;;;;;;;;;;5062106;28;20407;-54
2022/05/07 06:59:12;;;;;;;2.55;1.58;;;;;;;;;;5066871;28;20499;-54
2022/05/07 07:01:39;;;;;;;1.92;1.35;;;;;;;;;;5064608;28;20124;-53
2022/05/07 07:04:05;;;;;;;4.88;1.70;;;;;;;;;;5066578;28;20476;-51
2022/05/07 07:06:31;;;;;;;3.85;1.70;;;;;;;;;;5062335;28;20021;-55
2022/05/07 07:08:57;;;;;;;2.72;1.60;;;;;;;;;;5062492;28;20440;-53
2022/05/07 07:11:25;;;;;;;2.33;1.45;;;;;;;;;;5069615;28;20112;-53
2022/05/07 07:13:51;;;;;;;5.20;1.50;;;;;;;;;;5064457;28;20112;-53
2022/05/07 07:16:18;;;;;;;1.85;1.48;;;;;;;;;;5064820;28;20047;-51
2022/05/07 07:18:44;;;;;;;2.00;1.40;;;;;;;;;;5055778;28;20049;-54
2022/05/07 07:21:11;;;;;;;4.18;1.50;;;;;;;;;;5067431;28;20024;-51
2022/05/07 07:23:37;;;;;;;4.10;1.55;;;;;;;;;;5057826;28;20039;-52
2022/05/07 07:26:03;;;;;;;2.40;1.02;;;;;;;;;;5064341;28;20021;-50
2022/05/07 07:28:29;;;;;;;3.90;1.50;;;;;;;;;;5067601;28;20099;-52
2022/05/07 07:30:55;;;;;;;2.25;1.10;;;;;;;;;;5070749;28;20481;-53
2022/05/07 07:33:21;;;;;;;1.58;1.23;;;;;;;;;;5060333;28;20036;-52
2022/05/07 07:35:47;;;;;;;2.67;1.20;;;;;;;;;;5063736;28;20025;-51
2022/05/07 07:38:13;;;;;;;1.50;1.25;;;;;;;;;;5059287;28;20079;-51
2022/05/07 07:40:40;;;;;;;2.22;1.15;;;;;;;;;;5060767;28;20484;-52
2022/05/07 07:43:06;;;;;;;2.65;1.27;;;;;;;;;;5067488;28;20035;-51
2022/05/07 07:48:17;;;;;;;3.45;1.63;;;;;;;;;;5063213;28;20035;-51
2022/05/07 07:50:45;;;;;;;10.07;2.30;;;;;;;;;;5056390;28;20108;-53
2022/05/07 07:53:12;;;;;;;4.40;2.20;;;;;;;;;;5058458;28;20519;-52
2022/05/07 07:55:38;;;;;;;6.35;3.00;;;;;;;;;;5064602;28;20028;-52
2022/05/07 07:58:06;;;;;;;8.38;2.75;;;;;;;;;;5068102;28;20029;-52
2022/05/07 08:00:33;;;;;;;8.52;2.85;;;;;;;;;;5060549;28;20025;-51
2022/05/07 08:03:00;;;;;;;7.65;3.33;;;;;;;;;;5062203;28;20040;-50
2022/05/07 08:05:28;;;;;;;6.93;3.25;;;;;;;;;;5062445;28;20035;-51
2022/05/07 08:13:23;;;;;;;7.30;2.97;;;;;;;;;;5068885;28;20095;-52
2022/05/07 08:15:49;;;;;;;8.45;3.30;;;;;;;;;;5054295;28;20113;-54
2022/05/07 08:18:16;;;;;;;10.63;3.85;;;;;;;;;;5056185;28;20040;-53
2022/05/07 08:20:43;;;;;;;7.53;2.90;;;;;;;;;;5059144;28;20415;-52
2022/05/07 08:23:09;;;;;;;9.82;3.72;;;;;;;;;;5058768;28;20037;-53
2022/05/07 08:25:36;;;;;;;6.75;3.28;;;;;;;;;;5058218;28;20388;-54
2022/05/07 08:28:02;;;;;;;7.22;3.67;;;;;;;;;;5069711;28;20108;-53
2022/05/07 08:30:28;;;;;;;9.07;3.42;;;;;;;;;;5067661;28;20028;-52
2022/05/07 08:32:54;;;;;;;6.93;3.20;;;;;;;;;;5060195;28;20082;-55
2022/05/07 08:35:20;;;;;;;5.72;3.00;;;;;;;;;;5057989;28;20044;-52
2022/05/07 08:37:46;;;;;;;7.60;3.10;;;;;;;;;;5055382;28;20157;-52
2022/05/07 08:40:16;;;;;;;11.65;4.55;;;;;;;;;;5055862;28;20066;-54
2022/05/07 08:42:42;;;;;;;7.25;3.53;;;;;;;;;;5067048;28;20447;-54
2022/05/07 08:45:09;;;;;;;7.80;3.05;;;;;;;;;;5065772;28;20123;-53
2022/05/07 08:47:35;;;;;;;9.98;4.15;;;;;;;;;;5064380;28;20067;-53
2022/05/07 08:50:01;;;;;;;9.52;3.88;;;;;;;;;;5056695;28;20020;-55
2022/05/07 08:52:30;;;;;;;8.70;3.67;;;;;;;;;;5037755;28;20033;-54
2022/05/07 08:54:58;;;;;;;7.88;3.33;;;;;;;;;;5059093;28;20381;-54
2022/05/07 08:57:25;;;;;;;8.00;3.15;;;;;;;;;;5063470;28;20036;-52
2022/05/07 08:59:54;;;;;;;6.63;3.03;;;;;;;;;;5059998;28;20104;-52
2022/05/07 09:02:20;;;;;;;22.35;6.63;;;;;;;;;;5064828;28;20033;-51
2022/05/07 09:04:56;;;;;;;10.65;3.65;;;;;;;;;;5057407;28;20095;-51
2022/05/07 09:07:22;;;;;;;8.05;3.13;;;;;;;;;;5059234;28;20028;-55
2022/05/07 09:09:48;;;;;;;8.73;3.42;;;;;;;;;;5056897;28;20028;-51
2022/05/07 09:12:25;;;;;;;7.57;3.25;;;;;;;;;;5066319;28;20039;-55
2022/05/07 09:14:51;;;;;;;7.50;3.05;;;;;;;;;;5072053;28;20021;-53
2022/05/07 09:17:20;;;;;;;9.73;3.55;;;;;;;;;;5063701;28;20029;-54
2022/05/07 09:19:46;;;;;;;12.52;5.07;;;;;;;;;;5055284;28;20063;-53
2022/05/07 09:22:12;;;;;;;14.18;4.93;;;;;;;;;;5054882;28;20021;-51
2022/05/07 09:24:39;;;;;;;10.43;3.80;;;;;;;;;;5053948;28;20086;-53
2022/05/07 09:27:05;;;;;;;8.85;3.75;;;;;;;;;;5034162;28;20028;-54
2022/05/07 09:29:32;;;;;;;10.27;3.58;;;;;;;;;;5052018;28;20392;-53
2022/05/07 09:32:08;;;;;;;10.23;3.75;;;;;;;;;;5063394;28;20535;-55
2022/05/07 09:37:33;;;;;;;10.52;4.15;;;;;;;;;;5059144;28;20145;-53
2022/05/07 09:40:02;;;;;;;8.07;3.63;;;;;;;;;;5062618;28;20156;-52
2022/05/07 09:42:28;;;;;;;8.30;3.42;;;;;;;;;;5068966;28;20906;-53
2022/05/07 09:44:54;;;;;;;8.32;3.45;;;;;;;;;;5066958;28;20115;-54
2022/05/07 09:47:20;;;;;;;5.15;2.63;;;;;;;;;;5065562;28;20495;-55
2022/05/07 09:52:32;;;;;;;4.72;2.33;;;;;;;;;;5061257;28;20055;-55
2022/05/07 09:57:43;;;;;;;6.57;2.85;;;;;;;;;;5056474;28;20522;-55
2022/05/07 10:00:13;;;;;;;9.23;3.03;;;;;;;;;;5055850;28;20404;-53
2022/05/07 10:02:46;;;;;;;6.25;2.63;;;;;;;;;;5058005;28;20039;-54
2022/05/07 10:05:31;;;;;;;7.93;3.63;;;;;;;;;;5056736;28;20024;-53
2022/05/07 10:08:07;;;;;;;8.75;3.08;;;;;;;;;;5046779;28;20086;-53
2022/05/07 10:10:36;;;;;;;5.07;2.92;;;;;;;;;;5065439;28;20024;-54
2022/05/07 10:13:04;;;;;;;3.80;2.38;;;;;;;;;;5069009;28;20028;-55
2022/05/07 10:15:30;;;;;;;8.15;2.83;;;;;;;;;;5055755;28;20033;-54
2022/05/07 10:18:01;;;;;;;5.75;2.30;;;;;;;;;;5068234;28;20035;-55
2022/05/07 10:20:33;;;;;;;4.60;2.60;;;;;;;;;;5053141;28;20043;-56
2022/05/07 10:23:01;;;;;;;7.20;2.80;;;;;;;;;;5056022;28;20115;-55
2022/05/07 10:25:27;;;;;;;3.63;2.10;;;;;;;;;;5066007;28;20032;-54
2022/05/07 10:27:53;;;;;;;7.75;2.95;;;;;;;;;;5064367;28;20033;-55
2022/05/07 10:30:21;;;;;;;6.22;2.75;;;;;;;;;;5054808;28;20028;-53
2022/05/07 10:32:57;;;;;;;3.95;2.60;;;;;;;;;;5056824;28;20037;-55
2022/05/07 10:35:42;;;;;;;5.65;2.88;;;;;;;;;;5059273;28;20100;-52
2022/05/07 10:38:09;;;;;;;5.25;2.40;;;;;;;;;;5056805;28;20036;-54
2022/05/07 10:40:35;;;;;;;5.55;3.20;;;;;;;;;;5055620;28;20377;-55
2022/05/07 10:43:02;;;;;;;6.38;3.08;;;;;;;;;;5048114;28;20043;-52
2022/05/07 10:45:38;;;;;;;6.72;2.90;;;;;;;;;;5048461;28;20028;-54
2022/05/07 10:48:04;;;;;;;5.60;2.22;;;;;;;;;;5046742;28;20029;-55
2022/05/07 10:50:38;;;;;;;6.30;3.15;;;;;;;;;;5048822;28;20522;-54
2022/05/07 10:53:04;;;;;;;;;;;;;;;;;;5057810;28;20094;-56
2022/05/07 10:55:30;;;;;;;5.60;2.90;;;;;;;;;;5070511;28;19912;-55
2022/05/07 10:58:00;;;;;;;3.40;2.00;;;;;;;;;;5070290;28;20028;-55
2022/05/07 11:00:27;;;;;;;4.15;2.25;;;;;;;;;;5066717;28;20532;-52
2022/05/07 11:02:58;;;;;;;4.22;2.38;;;;;;;;;;5066257;28;20029;-53
2022/05/07 11:05:34;;;;;;;4.03;2.45;;;;;;;;;;5065331;28;20060;-55
2022/05/07 11:08:02;;;;;;;5.30;2.90;;;;;;;;;;5062325;28;20035;-55
2022/05/07 11:10:28;;;;;;;7.75;3.03;;;;;;;;;;5051199;28;20025;-55
2022/05/07 11:13:04;;;;;;;7.75;2.55;;;;;;;;;;5063120;28;20139;-52
2022/05/07 11:15:30;;;;;;;4.05;2.30;;;;;;;;;;5060768;28;20062;-55
2022/05/07 11:17:56;;;;;;;4.38;2.50;;;;;;;;;;5066597;28;20104;-55
2022/05/07 11:20:29;;;;;;;4.40;1.67;;;;;;;;;;5070135;28;20388;-52
2022/05/07 11:23:03;;;;;;;5.20;3.00;;;;;;;;;;5064930;28;20063;-52
2022/05/07 11:25:29;;;;;;;2.60;1.58;;;;;;;;;;5066960;28;20391;-53
2022/05/07 11:27:57;;;;;;;5.50;2.10;;;;;;;;;;5064602;28;20483;-55
2022/05/07 11:30:23;;;;;;;4.40;2.28;;;;;;;;;;5072408;28;20396;-53
2022/05/07 11:32:49;;;;;;;4.32;2.25;;;;;;;;;;5072142;28;20039;-54
2022/05/07 11:35:15;;;;;;;3.60;1.55;;;;;;;;;;5067397;28;20162;-54
2022/05/07 11:37:45;;;;;;;5.05;2.00;;;;;;;;;;5055642;28;20036;-54
2022/05/07 11:40:15;;;;;;;5.65;2.03;;;;;;;;;;5058156;28;20075;-55
2022/05/07 11:42:44;;;;;;;3.72;1.98;;;;;;;;;;5073251;28;20476;-55
2022/05/07 11:45:26;;;;;;;6.40;1.85;;;;;;;;;;5063087;28;20070;-55
2022/05/07 11:47:53;;;;;;;3.25;2.03;;;;;;;;;;5067071;28;20020;-56
2022/05/07 11:50:24;;;;;;;3.95;1.98;;;;;;;;;;5068453;28;20035;-56
2022/05/07 11:52:50;;;;;;;3.17;1.73;;;;;;;;;;5068945;28;20086;-55
2022/05/07 11:55:17;;;;;;;2.85;1.50;;;;;;;;;;5061461;28;20060;-56
2022/05/07 11:57:46;;;;;;;3.47;1.83;;;;;;;;;;5072899;28;20031;-56
2022/05/07 12:00:17;;;;;;;3.20;1.95;;;;;;;;;;5068646;28;20032;-56
2022/05/07 12:02:52;;;;;;;1.92;1.30;;;;;;;;;;5068716;28;20068;-54
2022/05/07 12:05:19;;;;;;;3.95;1.80;;;;;;;;;;5059358;28;20108;-55
2022/05/07 12:07:49;;;;;;;4.07;1.77;;;;;;;;;;5060774;28;20029;-53
2022/05/07 12:10:15;;;;;;;3.15;1.58;;;;;;;;;;5065959;28;20025;-55
2022/05/07 12:12:41;;;;;;;4.28;1.95;;;;;;;;;;5063953;28;20032;-57
2022/05/07 12:15:08;;;;;;;5.03;2.10;;;;;;;;;;5066628;28;20059;-55
2022/05/07 12:17:52;;;;;;;2.75;2.13;;;;;;;;;;5056207;28;20053;-55
2022/05/07 12:20:18;;;;;;;4.15;2.22;;;;;;;;;;5059574;28;20036;-55
2022/05/07 12:31:04;;;;;;;2.92;1.90;;;;;;;;;;5061118;28;20063;-56
2022/05/07 12:33:30;;;;;;;5.63;2.00;;;;;;;;;;5063823;28;20028;-56
2022/05/07 12:35:56;;;;;;;4.45;1.70;;;;;;;;;;5052381;28;20040;-55
2022/05/07 12:38:22;;;;;;;2.70;1.95;;;;;;;;;;5058442;28;20047;-56
2022/05/07 12:40:48;;;;;;;5.10;1.75;;;;;;;;;;5061603;28;20025;-55
2022/05/07 12:43:14;;;;;;;5.22;1.70;;;;;;;;;;5057931;28;20039;-56
2022/05/07 12:45:40;;;;;;;3.88;2.30;;;;;;;;;;5049114;28;20024;-56
2022/05/07 12:48:07;;;;;;;4.47;2.35;;;;;;;;;;5069266;28;20039;-54
2022/05/07 12:50:33;;;;;;;3.53;2.33;;;;;;;;;;5062090;28;20029;-56
2022/05/07 12:52:59;;;;;;;4.93;1.67;;;;;;;;;;5063917;28;20043;-53
2022/05/07 12:55:25;;;;;;;4.68;2.28;;;;;;;;;;5056835;28;20471;-55
2022/05/07 12:57:51;;;;;;;5.80;2.00;;;;;;;;;;5056013;28;20420;-56
2022/05/07 13:00:17;;;;;;;5.22;1.85;;;;;;;;;;5058997;28;20051;-55
2022/05/07 13:02:43;;;;;;;5.00;2.28;;;;;;;;;;5054652;28;20049;-56
2022/05/07 13:05:09;;;;;;;4.22;2.33;;;;;;;;;;5064020;28;20052;-56
2022/05/07 13:07:35;;;;;;;5.55;2.08;;;;;;;;;;5048585;28;20025;-56
2022/05/07 13:10:02;;;;;;;3.85;1.88;;;;;;;;;;5056227;28;20033;-52
2022/05/07 13:12:27;;;;;;;2.28;1.40;;;;;;;;;;5057870;28;20454;-53
2022/05/07 13:14:55;;;;;;;3.33;2.03;;;;;;;;;;5067336;28;20040;-54
2022/05/07 13:17:21;;;;;;;4.15;1.65;;;;;;;;;;5055197;28;20059;-54
2022/05/07 13:19:47;;;;;;;2.17;1.10;;;;;;;;;;5070828;28;20144;-54
2022/05/07 13:22:13;;;;;;;2.83;1.52;;;;;;;;;;5053143;28;20496;-53
2022/05/07 13:24:39;;;;;;;3.38;1.85;;;;;;;;;;5064158;28;20040;-53
2022/05/07 13:27:05;;;;;;;2.25;1.20;;;;;;;;;;5059868;28;20031;-53
2022/05/07 13:29:33;;;;;;;2.30;1.20;;;;;;;;;;5064275;28;20033;-54
2022/05/07 13:31:59;;;;;;;2.58;1.40;;;;;;;;;;5065406;28;20025;-54
2022/05/07 13:34:25;;;;;;;2.15;1.33;;;;;;;;;;5062292;28;20090;-54
2022/05/07 13:36:51;;;;;;;3.17;1.63;;;;;;;;;;5064569;28;20025;-53
2022/05/07 13:39:17;;;;;;;2.20;1.30;;;;;;;;;;5052725;28;20040;-53
2022/05/07 13:41:43;;;;;;;3.75;1.67;;;;;;;;;;5064373;28;20047;-54
2022/05/07 13:44:10;;;;;;;3.35;1.65;;;;;;;;;;5056770;28;20655;-53
2022/05/07 13:46:37;;;;;;;5.05;1.33;;;;;;;;;;5062489;28;20069;-54
2022/05/07 13:49:03;;;;;;;4.20;1.60;;;;;;;;;;5065191;28;20021;-53
2022/05/07 13:51:29;;;;;;;1.98;1.15;;;;;;;;;;5053763;28;20536;-53
2022/05/07 13:53:56;;;;;;;4.97;1.48;;;;;;;;;;5064304;28;20498;-53
2022/05/07 13:56:23;;;;;;;2.42;1.25;;;;;;;;;;5059339;28;20643;-55
2022/05/07 13:58:49;;;;;;;2.47;1.15;;;;;;;;;;5066063;28;20029;-56
2022/05/07 14:01:15;;;;;;;2.10;1.20;;;;;;;;;;5064786;28;21689;-57
2022/05/07 14:03:41;;;;;;;2.78;1.30;;;;;;;;;;5057339;28;20039;-54
2022/05/07 14:06:07;;;;;;;3.83;1.08;;;;;;;;;;5059017;28;20120;-56
2022/05/07 14:08:33;;;;;;;2.13;1.23;;;;;;;;;;5056747;28;20495;-55
2022/05/07 14:11:00;;;;;;;4.55;1.35;;;;;;;;;;5050855;28;20481;-55
2022/05/07 14:13:26;;;;;;;1.95;1.10;;;;;;;;;;5062615;28;20043;-55
2022/05/07 14:15:52;;;;;;;3.30;1.70;;;;;;;;;;5070361;28;20024;-55
2022/05/07 14:18:18;;;;;;;3.00;1.58;;;;;;;;;;5053155;28;20045;-55
2022/05/07 14:20:44;;;;;;;3.97;1.70;;;;;;;;;;5061610;28;20037;-53
2022/05/07 14:23:13;;;;;;;2.72;1.30;;;;;;;;;;5051291;28;20029;-54
2022/05/07 14:25:39;;;;;;;5.40;1.85;;;;;;;;;;5052573;28;20074;-55
2022/05/07 14:28:05;;;;;;;5.78;1.30;;;;;;;;;;5062113;28;20021;-55
2022/05/07 14:30:31;;;;;;;3.72;1.30;;;;;;;;;;5065321;28;20104;-56
2022/05/07 14:32:57;;;;;;;3.38;1.23;;;;;;;;;;5056930;28;20031;-55
2022/05/07 14:35:23;;;;;;;2.45;0.80;;;;;;;;;;5055224;28;20388;-53
2022/05/07 14:37:49;;;;;;;1.35;0.80;;;;;;;;;;5064391;28;20048;-53
2022/05/07 14:40:34;;;;;;;2.53;0.90;;;;;;;;;;5070325;28;20033;-53
2022/05/07 14:43:04;;;;;;;2.35;1.23;;;;;;;;;;5068842;28;20037;-52
2022/05/07 14:45:30;;;;;;;1.58;0.77;;;;;;;;;;5063250;28;20052;-53
2022/05/07 14:47:57;;;;;;;1.45;0.82;;;;;;;;;;5055111;28;20047;-56
2022/05/07 14:50:23;;;;;;;2.95;0.95;;;;;;;;;;5048358;28;20024;-54
2022/05/07 14:52:53;;;;;;;1.65;1.27;;;;;;;;;;5067690;28;20077;-56
2022/05/07 14:55:20;;;;;;;1.70;0.85;;;;;;;;;;5059242;28;20036;-55
2022/05/07 14:57:46;;;;;;;2.05;0.73;;;;;;;;;;5065975;28;20032;-56
2022/05/07 15:00:12;;;;;;;2.55;0.90;;;;;;;;;;5068113;28;20033;-55
2022/05/07 15:02:43;;;;;;;1.38;0.80;;;;;;;;;;5065076;28;20111;-56
2022/05/07 15:05:10;;;;;;;2.70;1.20;;;;;;;;;;5069078;28;20143;-54
2022/05/07 15:07:40;;;;;;;1.38;0.68;;;;;;;;;;5069988;28;20103;-57
2022/05/07 15:12:51;;;;;;;3.33;1.38;;;;;;;;;;5064443;28;20510;-53
2022/05/07 15:15:17;;;;;;;1.50;0.80;;;;;;;;;;5071806;28;20383;-51
2022/05/07 15:17:43;;;;;;;3.17;0.85;;;;;;;;;;5055157;28;20029;-52
2022/05/07 15:20:09;;;;;;;3.35;0.85;;;;;;;;;;5063107;28;20048;-54